Time,TemperatureF,DewpointF,PressureIn,WindDirection,WindDirectionDegrees,WindSpeedMPH,WindSpeedGustMPH,Humidity,HourlyPrecipIn,Conditions,Clouds,dailyrainin,SoftwareType,DateUTC
2013-07-22 00:00:00,62.4,57.2,29.82,North,-999,0.0,0.0,83,0.00,,,-99.99,FreeWX-Wi 1.01,2013-07-22 07:00:00,
2013-07-22 00:05:00,62.2,57.0,29.85,North,-999,0.0,0.0,83,0.00,,,-99.99,FreeWX-Wi 1.01,2013-07-22 07:05:00,
2013-07-22 00:10:00,61.9,56.7,29.85,North,-999,0.0,2.2,83,0.00,,,-99.99,FreeWX-Wi 1.01,2013-07-22 07:10:00,
2013-07-22 00:15:00,61.7,56.5,29.85,North,-999,0.0,2.2,83,0.00,,,-99.99,FreeWX-Wi 1.01,2013-07-22 07:15:00,
2013-07-22 00:20:00,61.5,56.3,29.85,North,-999,0.0,2.7,83,0.00,,,-99.99,FreeWX-Wi 1.01,2013-07-22 07:20:00,
2013-07-22 00:25:00,61.3,56.5,29.85,North,-999,0.0,0.0,84,0.00,,,-99.99,FreeWX-Wi 1.01,2013-07-22 07:25:00,
2013-07-22 00:30:00,61.2,56.7,29.85,North,-999,0.0,0.0,85,0.00,,,-99.99,FreeWX-Wi 1.01,2013-07-22 07:30:00,
2013-07-22 00:35:00,61.0,56.8,29.85,North,-999,0.0,2.7,86,0.00,,,-99.99,FreeWX-Wi 1.01,2013-07-22 07:35:00,
2013-07-22 00:40:00,60.8,56.7,29.85,North,-999,0.0,2.2,86,0.00,,,-99.99,FreeWX-Wi 1.01,2013-07-22 07:40:00,
2013-07-22 00:45:00,60.4,56.5,29.85,North,-999,0.0,0.0,87,0.00,,,-99.99,FreeWX-Wi 1.01,2013-07-22 07:45:00,
2013-07-22 00:50:00,60.3,56.3,29.85,North,-999,0.0,0.0,87,0.00,,,-99.99,FreeWX-Wi 1.01,2013-07-22 07:50:00,
2013-07-22 00:55:00,59.9,55.9,29.85,North,-999,0.0,0.0,87,0.00,,,-99.99,FreeWX-Wi 1.01,2013-07-22 07:55:00,
2013-07-22 01:00:00,59.9,55.9,29.85,North,-999,0.0,0.0,87,0.00,,,-99.99,FreeWX-Wi 1.01,2013-07-22 08:00:00,
2013-07-22 01:05:00,59.5,55.9,29.85,North,-999,0.0,2.2,88,0.00,,,-99.99,FreeWX-Wi 1.01,2013-07-22 08:05:00,
2013-07-22 01:10:00,59.5,56.3,29.85,North,-999,0.0,2.2,89,0.00,,,-99.99,FreeWX-Wi 1.01,2013-07-22 08:10:00,
2013-07-22 01:15:00,59.2,55.9,29.85,North,-999,0.0,0.0,89,0.00,,,-99.99,FreeWX-Wi 1.01,2013-07-22 08:15:00,
2013-07-22 01:20:00,59.2,55.9,29.85,North,-999,0.0,0.0,89,0.00,,,-99.99,FreeWX-Wi 1.01,2013-07-22 08:20:00,
2013-07-22 01:25:00,59.0,55.8,29.85,North,-999,0.0,2.7,89,0.00,,,-99.99,FreeWX-Wi 1.01,2013-07-22 08:25:00,
2013-07-22 01:30:00,58.8,55.9,29.85,North,-999,0.0,3.6,90,0.00,,,-99.99,FreeWX-Wi 1.01,2013-07-22 08:30:00,
2013-07-22 01:35:00,58.8,56.1,29.85,North,-999,0.0,2.2,91,0.00,,,-99.99,FreeWX-Wi 1.01,2013-07-22 08:35:00,
2013-07-22 01:40:00,58.6,55.9,29.85,North,-999,0.0,2.7,91,0.00,,,-99.99,FreeWX-Wi 1.01,2013-07-22 08:40:00,
2013-07-22 01:45:00,58.5,55.8,29.85,North,-999,0.0,3.1,91,0.00,,,-99.99,FreeWX-Wi 1.01,2013-07-22 08:45:00,
2013-07-22 01:50:00,58.3,55.6,29.85,North,-999,0.0,2.7,91,0.00,,,-99.99,FreeWX-Wi 1.01,2013-07-22 08:50:00,
2013-07-22 01:55:00,58.3,55.6,29.85,North,-999,0.0,2.7,91,0.00,,,-99.99,FreeWX-Wi 1.01,2013-07-22 08:55:00,
2013-07-22 02:00:00,58.1,55.8,29.85,North,-999,0.0,2.2,92,0.00,,,-99.99,FreeWX-Wi 1.01,2013-07-22 09:00:00,
2013-07-22 02:05:00,58.1,55.8,29.85,North,-999,0.0,2.2,92,0.00,,,-99.99,FreeWX-Wi 1.01,2013-07-22 09:05:00,
2013-07-22 02:10:00,57.9,55.6,29.85,North,-999,0.0,2.2,92,0.00,,,-99.99,FreeWX-Wi 1.01,2013-07-22 09:10:00,
2013-07-22 02:15:00,57.9,55.6,29.85,North,-999,0.0,2.2,92,0.00,,,-99.99,FreeWX-Wi 1.01,2013-07-22 09:15:00,
2013-07-22 02:20:00,57.7,55.4,29.85,North,-999,0.0,0.0,92,0.00,,,-99.99,FreeWX-Wi 1.01,2013-07-22 09:20:00,
2013-07-22 02:25:00,57.6,55.2,29.85,North,-999,0.0,3.1,92,0.00,,,-99.99,FreeWX-Wi 1.01,2013-07-22 09:25:00,
2013-07-22 02:30:00,57.4,55.4,29.85,North,-999,0.0,3.1,93,0.00,,,-99.99,FreeWX-Wi 1.01,2013-07-22 09:30:00,
2013-07-22 02:35:00,57.4,55.4,29.85,North,-999,0.0,2.7,93,0.00,,,-99.99,FreeWX-Wi 1.01,2013-07-22 09:35:00,
2013-07-22 02:40:00,57.4,55.4,29.85,North,-999,0.0,2.2,93,0.00,,,-99.99,FreeWX-Wi 1.01,2013-07-22 09:40:00,
2013-07-22 02:45:00,57.6,55.6,29.85,North,-999,0.0,5.8,93,0.00,,,-99.99,FreeWX-Wi 1.01,2013-07-22 09:45:00,
2013-07-22 02:50:00,57.6,55.8,29.88,North,-999,0.0,4.0,94,0.00,,,-99.99,FreeWX-Wi 1.01,2013-07-22 09:50:00,
2013-07-22 02:55:00,57.7,55.9,29.88,North,-999,0.0,2.7,94,0.00,,,-99.99,FreeWX-Wi 1.01,2013-07-22 09:55:00,
2013-07-22 03:00:00,57.6,55.8,29.88,North,-999,0.0,3.1,94,0.00,,,-99.99,FreeWX-Wi 1.01,2013-07-22 10:00:00,
2013-07-22 03:05:00,57.6,55.8,29.88,South,178,1.0,3.6,94,0.00,,,-99.99,FreeWX-Wi 1.01,2013-07-22 10:05:00,
2013-07-22 03:10:00,57.6,55.8,29.88,South,184,1.0,3.6,94,0.00,,,-99.99,FreeWX-Wi 1.01,2013-07-22 10:10:00,
2013-07-22 03:15:00,57.4,55.6,29.88,South,188,1.0,2.2,94,0.00,,,-99.99,FreeWX-Wi 1.01,2013-07-22 10:15:00,
2013-07-22 03:20:00,57.4,55.6,29.88,SSW,193,1.0,2.2,94,0.00,,,-99.99,FreeWX-Wi 1.01,2013-07-22 10:20:00,
2013-07-22 03:25:00,57.4,55.6,29.88,SSW,198,1.0,2.7,94,0.00,,,-99.99,FreeWX-Wi 1.01,2013-07-22 10:25:00,
2013-07-22 03:30:00,57.2,55.4,29.88,SSW,205,1.0,2.2,94,0.00,,,-99.99,FreeWX-Wi 1.01,2013-07-22 10:30:00,
2013-07-22 03:35:00,57.2,55.4,29.88,SW,216,1.0,3.1,94,0.00,,,-99.99,FreeWX-Wi 1.01,2013-07-22 10:35:00,
2013-07-22 03:40:00,57.2,55.4,29.88,North,-999,0.0,2.2,94,0.00,,,-99.99,FreeWX-Wi 1.01,2013-07-22 10:40:00,
2013-07-22 03:45:00,57.4,55.9,29.88,North,-999,0.0,2.7,95,0.00,,,-99.99,FreeWX-Wi 1.01,2013-07-22 10:45:00,
2013-07-22 03:50:00,57.4,55.9,29.88,North,-999,0.0,2.7,95,0.00,,,-99.99,FreeWX-Wi 1.01,2013-07-22 10:50:00,
2013-07-22 03:55:00,57.4,55.9,29.88,North,-999,0.0,4.0,95,0.00,,,-99.99,FreeWX-Wi 1.01,2013-07-22 10:55:00,
2013-07-22 04:00:00,57.6,56.1,29.88,North,-999,0.0,4.0,95,0.00,,,-99.99,FreeWX-Wi 1.01,2013-07-22 11:00:00,
2013-07-22 04:05:00,57.6,56.1,29.88,North,-999,0.0,2.2,95,0.00,,,-99.99,FreeWX-Wi 1.01,2013-07-22 11:05:00,
2013-07-22 04:10:00,57.6,56.1,29.88,North,-999,0.0,2.2,95,0.00,,,-99.99,FreeWX-Wi 1.01,2013-07-22 11:10:00,
2013-07-22 04:15:00,57.7,56.3,29.88,North,-999,0.0,3.6,95,0.00,,,-99.99,FreeWX-Wi 1.01,2013-07-22 11:15:00,
2013-07-22 04:20:00,57.7,56.3,29.88,North,-999,0.0,0.0,95,0.00,,,-99.99,FreeWX-Wi 1.01,2013-07-22 11:20:00,
2013-07-22 04:25:00,57.7,56.3,29.88,North,-999,0.0,2.7,95,0.00,,,-99.99,FreeWX-Wi 1.01,2013-07-22 11:25:00,
2013-07-22 04:30:00,57.7,56.3,29.88,North,-999,0.0,2.2,95,0.00,,,-99.99,FreeWX-Wi 1.01,2013-07-22 11:30:00,
2013-07-22 04:35:00,57.7,56.3,29.88,North,-999,0.0,0.0,95,0.00,,,-99.99,FreeWX-Wi 1.01,2013-07-22 11:35:00,
2013-07-22 04:40:00,57.6,56.1,29.88,North,-999,0.0,3.6,95,0.00,,,-99.99,FreeWX-Wi 1.01,2013-07-22 11:40:00,
2013-07-22 04:45:00,57.6,56.1,29.88,North,-999,0.0,2.7,95,0.00,,,-99.99,FreeWX-Wi 1.01,2013-07-22 11:45:00,
2013-07-22 04:50:00,57.6,56.1,29.88,North,-999,0.0,0.0,95,0.00,,,-99.99,FreeWX-Wi 1.01,2013-07-22 11:50:00,
2013-07-22 04:55:00,57.6,56.1,29.88,North,-999,0.0,2.7,95,0.00,,,-99.99,FreeWX-Wi 1.01,2013-07-22 11:55:00,
2013-07-22 05:00:00,57.4,55.9,29.88,North,-999,0.0,0.0,95,0.00,,,-99.99,FreeWX-Wi 1.01,2013-07-22 12:00:00,
2013-07-22 05:05:00,57.4,55.9,29.88,North,-999,0.0,2.2,95,0.00,,,-99.99,FreeWX-Wi 1.01,2013-07-22 12:05:00,
2013-07-22 05:10:00,57.4,55.9,29.88,North,-999,0.0,0.0,95,0.00,,,-99.99,FreeWX-Wi 1.01,2013-07-22 12:10:00,
2013-07-22 05:15:00,57.4,55.9,29.88,North,-999,0.0,0.0,95,0.00,,,-99.99,FreeWX-Wi 1.01,2013-07-22 12:15:00,
2013-07-22 05:20:00,57.4,55.9,29.88,North,-999,0.0,2.2,95,0.00,,,-99.99,FreeWX-Wi 1.01,2013-07-22 12:20:00,
2013-07-22 05:25:00,57.4,55.9,29.88,North,-999,0.0,0.0,95,0.00,,,-99.99,FreeWX-Wi 1.01,2013-07-22 12:25:00,
2013-07-22 05:30:00,57.4,55.9,29.88,North,-999,0.0,0.0,95,0.00,,,-99.99,FreeWX-Wi 1.01,2013-07-22 12:30:00,
2013-07-22 05:35:00,57.4,55.9,29.88,North,-999,0.0,0.0,95,0.00,,,-99.99,FreeWX-Wi 1.01,2013-07-22 12:35:00,
2013-07-22 05:40:00,57.4,55.9,29.88,North,-999,0.0,0.0,95,0.00,,,-99.99,FreeWX-Wi 1.01,2013-07-22 12:40:00,
2013-07-22 05:45:00,57.4,55.9,29.88,North,-999,0.0,0.0,95,0.00,,,-99.99,FreeWX-Wi 1.01,2013-07-22 12:45:00,
2013-07-22 05:50:00,57.4,55.9,29.88,North,-999,0.0,2.7,95,0.00,,,-99.99,FreeWX-Wi 1.01,2013-07-22 12:50:00,
2013-07-22 05:55:00,57.4,55.9,29.88,North,-999,0.0,0.0,95,0.00,,,-99.99,FreeWX-Wi 1.01,2013-07-22 12:55:00,
2013-07-22 06:00:00,57.6,56.1,29.88,North,-999,0.0,3.1,95,0.00,,,-99.99,FreeWX-Wi 1.01,2013-07-22 13:00:00,
2013-07-22 06:05:00,57.4,55.9,29.91,North,-999,0.0,3.6,95,0.00,,,-99.99,FreeWX-Wi 1.01,2013-07-22 13:05:00,
2013-07-22 06:10:00,57.4,55.9,29.91,North,-999,0.0,0.0,95,0.00,,,-99.99,FreeWX-Wi 1.01,2013-07-22 13:10:00,
2013-07-22 06:15:00,57.4,55.9,29.91,North,-999,0.0,2.7,95,0.00,,,-99.99,FreeWX-Wi 1.01,2013-07-22 13:15:00,
2013-07-22 06:20:00,57.4,55.9,29.91,North,-999,0.0,0.0,95,0.00,,,-99.99,FreeWX-Wi 1.01,2013-07-22 13:20:00,
2013-07-22 06:25:00,57.4,55.9,29.91,North,-999,0.0,2.7,95,0.00,,,-99.99,FreeWX-Wi 1.01,2013-07-22 13:25:00,
2013-07-22 06:30:00,57.4,55.9,29.91,North,-999,0.0,0.0,95,0.00,,,-99.99,FreeWX-Wi 1.01,2013-07-22 13:30:00,
2013-07-22 06:35:00,57.4,55.9,29.91,North,-999,0.0,2.7,95,0.00,,,-99.99,FreeWX-Wi 1.01,2013-07-22 13:35:00,
2013-07-22 06:40:00,57.6,56.1,29.91,North,-999,0.0,2.2,95,0.00,,,-99.99,FreeWX-Wi 1.01,2013-07-22 13:40:00,
2013-07-22 06:45:00,57.6,56.1,29.91,North,-999,0.0,2.2,95,0.00,,,-99.99,FreeWX-Wi 1.01,2013-07-22 13:45:00,
2013-07-22 06:50:00,57.6,56.1,29.91,North,-999,0.0,0.0,95,0.00,,,-99.99,FreeWX-Wi 1.01,2013-07-22 13:50:00,
2013-07-22 06:55:00,57.7,56.3,29.91,North,-999,0.0,0.0,95,0.00,,,-99.99,FreeWX-Wi 1.01,2013-07-22 13:55:00,
2013-07-22 07:00:00,57.7,56.3,29.91,North,-999,0.0,0.0,95,0.00,,,-99.99,FreeWX-Wi 1.01,2013-07-22 14:00:00,
2013-07-22 07:05:00,57.7,56.3,29.91,North,-999,0.0,3.1,95,0.00,,,-99.99,FreeWX-Wi 1.01,2013-07-22 14:05:00,
2013-07-22 07:10:00,57.7,56.3,29.91,North,-999,0.0,2.2,95,0.00,,,-99.99,FreeWX-Wi 1.01,2013-07-22 14:10:00,
2013-07-22 07:15:00,57.7,56.3,29.91,North,-999,0.0,2.7,95,0.00,,,-99.99,FreeWX-Wi 1.01,2013-07-22 14:15:00,
2013-07-22 07:20:00,57.9,56.5,29.91,North,-999,0.0,0.0,95,0.00,,,-99.99,FreeWX-Wi 1.01,2013-07-22 14:20:00,
2013-07-22 07:25:00,57.9,56.5,29.91,North,-999,0.0,0.0,95,0.00,,,-99.99,FreeWX-Wi 1.01,2013-07-22 14:25:00,
2013-07-22 07:30:00,57.9,56.5,29.91,North,-999,0.0,0.0,95,0.00,,,-99.99,FreeWX-Wi 1.01,2013-07-22 14:30:00,
2013-07-22 07:35:00,58.1,56.7,29.91,North,-999,0.0,0.0,95,0.00,,,-99.99,FreeWX-Wi 1.01,2013-07-22 14:35:00,
2013-07-22 07:40:00,58.3,56.8,29.91,North,-999,0.0,2.2,95,0.00,,,-99.99,FreeWX-Wi 1.01,2013-07-22 14:40:00,
2013-07-22 07:46:00,58.3,56.8,29.91,North,-999,0.0,0.0,95,0.00,,,-99.99,FreeWX-Wi 1.01,2013-07-22 14:46:00,
2013-07-22 07:51:00,58.5,57.0,29.91,North,-999,0.0,0.0,95,0.00,,,-99.99,FreeWX-Wi 1.01,2013-07-22 14:51:00,
2013-07-22 07:56:00,58.6,57.2,29.91,North,-999,0.0,0.0,95,0.00,,,-99.99,FreeWX-Wi 1.01,2013-07-22 14:56:00,
2013-07-22 08:01:00,58.8,57.0,29.91,North,-999,0.0,0.0,94,0.00,,,-99.99,FreeWX-Wi 1.01,2013-07-22 15:01:00,
2013-07-22 08:06:00,58.8,57.0,29.94,North,-999,0.0,4.0,94,0.00,,,-99.99,FreeWX-Wi 1.01,2013-07-22 15:06:00,
2013-07-22 08:11:00,58.6,56.8,29.94,North,-999,0.0,3.6,94,0.00,,,-99.99,FreeWX-Wi 1.01,2013-07-22 15:11:00,
2013-07-22 08:16:00,58.5,56.5,29.94,North,-999,0.0,3.6,93,0.00,,,-99.99,FreeWX-Wi 1.01,2013-07-22 15:16:00,
2013-07-22 08:21:00,58.6,56.7,29.94,North,-999,0.0,0.0,93,0.00,,,-99.99,FreeWX-Wi 1.01,2013-07-22 15:21:00,
2013-07-22 08:26:00,58.8,56.8,29.94,North,-999,0.0,0.0,93,0.00,,,-99.99,FreeWX-Wi 1.01,2013-07-22 15:26:00,
2013-07-22 08:31:00,58.8,56.8,29.94,North,-999,0.0,2.2,93,0.00,,,-99.99,FreeWX-Wi 1.01,2013-07-22 15:31:00,
2013-07-22 08:36:00,58.8,56.8,29.94,North,-999,0.0,0.0,93,0.00,,,-99.99,FreeWX-Wi 1.01,2013-07-22 15:36:00,
2013-07-22 08:41:00,59.0,57.0,29.94,North,-999,0.0,0.0,93,0.00,,,-99.99,FreeWX-Wi 1.01,2013-07-22 15:41:00,
2013-07-22 08:46:00,59.0,56.7,29.94,North,-999,0.0,2.2,92,0.00,,,-99.99,FreeWX-Wi 1.01,2013-07-22 15:46:00,
2013-07-22 08:51:00,59.4,57.4,29.94,North,-999,0.0,2.2,93,0.00,,,-99.99,FreeWX-Wi 1.01,2013-07-22 15:51:00,
2013-07-22 08:56:00,59.7,57.4,29.94,North,-999,0.0,2.7,92,0.00,,,-99.99,FreeWX-Wi 1.01,2013-07-22 15:56:00,
2013-07-22 09:01:00,60.1,57.7,29.94,North,-999,0.0,0.0,92,0.00,,,-99.99,FreeWX-Wi 1.01,2013-07-22 16:01:00,
2013-07-22 09:06:00,60.1,57.7,29.94,North,-999,0.0,2.7,92,0.00,,,-99.99,FreeWX-Wi 1.01,2013-07-22 16:06:00,
2013-07-22 09:11:00,60.1,57.2,29.94,North,-999,0.0,2.7,90,0.00,,,-99.99,FreeWX-Wi 1.01,2013-07-22 16:11:00,
2013-07-22 09:16:00,60.1,56.8,29.94,North,-999,0.0,4.0,89,0.00,,,-99.99,FreeWX-Wi 1.01,2013-07-22 16:16:00,
2013-07-22 09:21:00,60.1,56.5,29.94,North,-999,0.0,4.0,88,0.00,,,-99.99,FreeWX-Wi 1.01,2013-07-22 16:21:00,
2013-07-22 09:26:00,60.4,56.8,29.94,North,-999,0.0,3.1,88,0.00,,,-99.99,FreeWX-Wi 1.01,2013-07-22 16:26:00,
2013-07-22 09:31:00,61.0,57.0,29.94,North,-999,0.0,0.0,87,0.00,,,-99.99,FreeWX-Wi 1.01,2013-07-22 16:31:00,
2013-07-22 09:36:00,61.0,56.5,29.94,North,-999,0.0,3.6,85,0.00,,,-99.99,FreeWX-Wi 1.01,2013-07-22 16:36:00,
2013-07-22 09:41:00,61.2,55.9,29.94,North,-999,0.0,4.0,83,0.00,,,-99.99,FreeWX-Wi 1.01,2013-07-22 16:41:00,
2013-07-22 09:46:00,61.3,56.1,29.94,North,-999,0.0,3.1,83,0.00,,,-99.99,FreeWX-Wi 1.01,2013-07-22 16:46:00,
2013-07-22 09:51:00,61.3,55.8,29.94,North,-999,0.0,3.6,82,0.00,,,-99.99,FreeWX-Wi 1.01,2013-07-22 16:51:00,
2013-07-22 09:56:00,61.5,55.9,29.94,North,-999,0.0,4.0,82,0.00,,,-99.99,FreeWX-Wi 1.01,2013-07-22 16:56:00,
2013-07-22 10:01:00,61.9,56.3,29.94,North,-999,0.0,3.6,82,0.00,,,-99.99,FreeWX-Wi 1.01,2013-07-22 17:01:00,
2013-07-22 10:06:00,62.2,56.3,29.94,North,-999,0.0,0.0,81,0.00,,,-99.99,FreeWX-Wi 1.01,2013-07-22 17:06:00,
2013-07-22 10:11:00,62.8,56.5,29.94,North,-999,0.0,0.0,80,0.00,,,-99.99,FreeWX-Wi 1.01,2013-07-22 17:11:00,
2013-07-22 10:16:00,63.5,56.8,29.94,North,-999,0.0,3.1,79,0.00,,,-99.99,FreeWX-Wi 1.01,2013-07-22 17:16:00,
2013-07-22 10:21:00,63.7,56.7,29.94,North,-999,0.0,2.7,78,0.00,,,-99.99,FreeWX-Wi 1.01,2013-07-22 17:21:00,
2013-07-22 10:26:00,63.7,55.2,29.94,North,-999,0.0,3.6,74,0.00,,,-99.99,FreeWX-Wi 1.01,2013-07-22 17:26:00,
2013-07-22 10:31:00,63.5,54.7,29.94,North,-999,0.0,3.6,73,0.00,,,-99.99,FreeWX-Wi 1.01,2013-07-22 17:31:00,
2013-07-22 10:36:00,63.7,55.6,29.97,North,-999,0.0,2.2,75,0.00,,,-99.99,FreeWX-Wi 1.01,2013-07-22 17:36:00,
2013-07-22 10:41:00,64.2,56.1,29.97,North,-999,0.0,2.7,75,0.00,,,-99.99,FreeWX-Wi 1.01,2013-07-22 17:41:00,
2013-07-22 10:46:00,64.6,56.1,29.97,North,-999,0.0,2.7,74,0.00,,,-99.99,FreeWX-Wi 1.01,2013-07-22 17:46:00,
2013-07-22 10:51:00,64.8,55.9,29.97,North,-999,0.0,0.0,73,0.00,,,-99.99,FreeWX-Wi 1.01,2013-07-22 17:51:00,
2013-07-22 10:56:00,65.1,55.4,29.97,North,-999,0.0,2.7,71,0.00,,,-99.99,FreeWX-Wi 1.01,2013-07-22 17:56:00,
2013-07-22 11:01:00,65.3,55.6,29.97,North,-999,0.0,0.0,71,0.00,,,-99.99,FreeWX-Wi 1.01,2013-07-22 18:01:00,
2013-07-22 11:11:00,66.2,56.1,29.97,North,-999,0.0,0.0,70,0.00,,,-99.99,FreeWX-Wi 1.01,2013-07-22 18:11:00,
2013-07-22 11:21:00,66.2,55.4,29.97,North,-999,0.0,2.2,68,0.00,,,-99.99,FreeWX-Wi 1.01,2013-07-22 18:21:00,
2013-07-22 11:26:00,66.4,55.4,29.97,North,-999,0.0,3.6,68,0.00,,,-99.99,FreeWX-Wi 1.01,2013-07-22 18:26:00,
2013-07-22 11:31:00,66.4,55.4,29.97,North,-999,0.0,2.7,68,0.00,,,-99.99,FreeWX-Wi 1.01,2013-07-22 18:31:00,
2013-07-22 11:36:00,66.2,54.9,29.97,North,-999,0.0,3.1,67,0.00,,,-99.99,FreeWX-Wi 1.01,2013-07-22 18:36:00,
2013-07-22 11:41:00,66.4,55.4,29.97,North,-999,0.0,0.0,68,0.00,,,-99.99,FreeWX-Wi 1.01,2013-07-22 18:41:00,
2013-07-22 11:46:00,66.4,55.0,29.97,North,-999,0.0,0.0,67,0.00,,,-99.99,FreeWX-Wi 1.01,2013-07-22 18:46:00,
2013-07-22 11:57:00,66.9,55.6,29.97,North,-999,0.0,2.7,67,0.00,,,-99.99,FreeWX-Wi 1.01,2013-07-22 18:57:00,
2013-07-22 12:02:00,67.1,55.4,29.97,North,-999,0.0,3.6,66,0.00,,,-99.99,FreeWX-Wi 1.01,2013-07-22 19:02:00,
2013-07-22 12:07:00,67.6,55.4,29.97,North,-999,0.0,0.0,65,0.00,,,-99.99,FreeWX-Wi 1.01,2013-07-22 19:07:00,
2013-07-22 12:12:00,68.5,55.4,29.97,North,-999,0.0,2.2,63,0.00,,,-99.99,FreeWX-Wi 1.01,2013-07-22 19:12:00,
2013-07-22 12:17:00,68.9,55.4,29.97,North,-999,0.0,3.6,62,0.00,,,-99.99,FreeWX-Wi 1.01,2013-07-22 19:17:00,
2013-07-22 12:22:00,69.1,55.6,29.97,North,-999,0.0,3.6,62,0.00,,,-99.99,FreeWX-Wi 1.01,2013-07-22 19:22:00,
2013-07-22 12:27:00,69.6,55.0,29.97,North,-999,0.0,3.1,60,0.00,,,-99.99,FreeWX-Wi 1.01,2013-07-22 19:27:00,
2013-07-22 12:32:00,70.0,55.0,29.97,North,-999,0.0,2.2,59,0.00,,,-99.99,FreeWX-Wi 1.01,2013-07-22 19:32:00,
2013-07-22 12:37:00,70.3,55.8,29.97,North,-999,0.0,0.0,60,0.00,,,-99.99,FreeWX-Wi 1.01,2013-07-22 19:37:00,
2013-07-22 12:42:00,70.9,55.8,29.97,North,-999,0.0,2.7,59,0.00,,,-99.99,FreeWX-Wi 1.01,2013-07-22 19:42:00,
2013-07-22 12:58:00,71.1,54.5,29.97,North,-999,0.0,3.6,56,0.00,,,-99.99,FreeWX-Wi 1.01,2013-07-22 19:58:00,
2013-07-22 13:08:00,70.5,54.5,29.97,North,-999,0.0,4.0,57,0.00,,,-99.99,FreeWX-Wi 1.01,2013-07-22 20:08:00,
2013-07-22 13:13:00,70.5,55.4,29.97,East,85,1.0,5.4,59,0.00,,,-99.99,FreeWX-Wi 1.01,2013-07-22 20:13:00,
2013-07-22 13:18:00,72.0,56.3,29.97,East,100,1.0,5.8,58,0.00,,,-99.99,FreeWX-Wi 1.01,2013-07-22 20:18:00,
2013-07-22 13:23:00,72.5,55.4,29.97,ESE,119,1.0,3.6,55,0.00,,,-99.99,FreeWX-Wi 1.01,2013-07-22 20:23:00,
2013-07-22 13:28:00,72.9,55.2,29.97,ESE,116,1.0,6.3,54,0.00,,,-99.99,FreeWX-Wi 1.01,2013-07-22 20:28:00,
2013-07-22 13:33:00,72.9,55.2,29.97,ESE,110,2.0,6.3,54,0.00,,,-99.99,FreeWX-Wi 1.01,2013-07-22 20:33:00,
2013-07-22 13:38:00,73.2,55.0,29.94,ESE,109,2.0,5.8,53,0.00,,,-99.99,FreeWX-Wi 1.01,2013-07-22 20:38:00,
2013-07-22 13:43:00,73.4,55.2,29.94,ESE,114,2.0,4.0,53,0.00,,,-99.99,FreeWX-Wi 1.01,2013-07-22 20:43:00,
2013-07-22 13:48:00,73.6,54.3,29.94,ESE,109,2.0,5.4,51,0.00,,,-99.99,FreeWX-Wi 1.01,2013-07-22 20:48:00,
2013-07-22 13:53:00,73.8,54.5,29.94,ESE,110,2.0,5.4,51,0.00,,,-99.99,FreeWX-Wi 1.01,2013-07-22 20:53:00,
2013-07-22 13:58:00,74.1,54.3,29.94,ESE,110,2.0,4.0,50,0.00,,,-99.99,FreeWX-Wi 1.01,2013-07-22 20:58:00,
2013-07-22 14:03:00,74.3,54.0,29.94,ESE,106,2.0,3.1,49,0.00,,,-99.99,FreeWX-Wi 1.01,2013-07-22 21:03:00,
2013-07-22 14:08:00,74.5,54.7,29.94,ESE,102,2.0,5.4,50,0.00,,,-99.99,FreeWX-Wi 1.01,2013-07-22 21:08:00,
2013-07-22 14:13:00,74.5,54.0,29.94,East,95,2.0,4.0,49,0.00,,,-99.99,FreeWX-Wi 1.01,2013-07-22 21:13:00,
2013-07-22 14:18:00,74.8,54.3,29.94,East,100,2.0,4.0,49,0.00,,,-99.99,FreeWX-Wi 1.01,2013-07-22 21:18:00,
2013-07-22 14:23:00,75.0,54.0,29.94,ESE,104,2.0,4.0,48,0.00,,,-99.99,FreeWX-Wi 1.01,2013-07-22 21:23:00,
2013-07-22 14:28:00,74.8,53.8,29.94,ESE,104,2.0,3.1,48,0.00,,,-99.99,FreeWX-Wi 1.01,2013-07-22 21:28:00,
2013-07-22 14:33:00,74.7,54.1,29.94,ESE,105,2.0,3.1,49,0.00,,,-99.99,FreeWX-Wi 1.01,2013-07-22 21:33:00,
2013-07-22 14:38:00,75.2,54.1,29.94,ESE,109,2.0,3.6,48,0.00,,,-99.99,FreeWX-Wi 1.01,2013-07-22 21:38:00,
2013-07-22 14:43:00,75.4,53.1,29.94,ESE,107,2.0,4.9,46,0.00,,,-99.99,FreeWX-Wi 1.01,2013-07-22 21:43:00,
2013-07-22 14:48:00,75.7,53.4,29.94,ESE,119,2.0,4.0,46,0.00,,,-99.99,FreeWX-Wi 1.01,2013-07-22 21:48:00,
2013-07-22 14:53:00,76.1,53.8,29.94,ESE,116,2.0,3.6,46,0.00,,,-99.99,FreeWX-Wi 1.01,2013-07-22 21:53:00,
2013-07-22 14:58:00,75.7,54.1,29.94,East,100,2.0,5.4,47,0.00,,,-99.99,FreeWX-Wi 1.01,2013-07-22 21:58:00,
2013-07-22 15:03:00,75.7,54.1,29.94,ESE,105,2.0,3.1,47,0.00,,,-99.99,FreeWX-Wi 1.01,2013-07-22 22:03:00,
2013-07-22 15:08:00,76.1,53.8,29.94,ESE,109,2.0,4.9,46,0.00,,,-99.99,FreeWX-Wi 1.01,2013-07-22 22:08:00,
2013-07-22 15:13:00,76.3,54.0,29.94,ESE,107,2.0,6.3,46,0.00,,,-99.99,FreeWX-Wi 1.01,2013-07-22 22:13:00,
2013-07-22 15:18:00,75.7,53.4,29.94,East,98,2.0,4.0,46,0.00,,,-99.99,FreeWX-Wi 1.01,2013-07-22 22:18:00,
2013-07-22 15:23:00,76.5,54.7,29.94,ESE,110,2.0,4.0,47,0.00,,,-99.99,FreeWX-Wi 1.01,2013-07-22 22:23:00,
2013-07-22 15:28:00,77.0,54.0,29.94,ESE,103,2.0,3.6,45,0.00,,,-99.99,FreeWX-Wi 1.01,2013-07-22 22:28:00,
2013-07-22 15:33:00,77.4,53.8,29.94,SE,130,2.0,4.9,44,0.00,,,-99.99,FreeWX-Wi 1.01,2013-07-22 22:33:00,
2013-07-22 15:38:00,78.1,54.3,29.94,SSE,149,2.0,4.9,44,0.00,,,-99.99,FreeWX-Wi 1.01,2013-07-22 22:38:00,
2013-07-22 15:43:00,78.4,54.1,29.94,SSE,159,2.0,3.6,43,0.00,,,-99.99,FreeWX-Wi 1.01,2013-07-22 22:43:00,
2013-07-22 15:48:00,78.4,54.7,29.94,SSE,167,2.0,3.1,44,0.00,,,-99.99,FreeWX-Wi 1.01,2013-07-22 22:48:00,
2013-07-22 15:53:00,78.4,54.1,29.94,SSE,166,2.0,2.7,43,0.00,,,-99.99,FreeWX-Wi 1.01,2013-07-22 22:53:00,
2013-07-22 15:58:00,78.3,54.0,29.94,SSE,168,2.0,4.9,43,0.00,,,-99.99,FreeWX-Wi 1.01,2013-07-22 22:58:00,
2013-07-22 16:03:00,77.9,54.1,29.91,South,173,2.0,3.1,44,0.00,,,-99.99,FreeWX-Wi 1.01,2013-07-22 23:03:00,
2013-07-22 16:08:00,78.3,54.0,29.91,South,176,2.0,2.7,43,0.00,,,-99.99,FreeWX-Wi 1.01,2013-07-22 23:08:00,
2013-07-22 16:13:00,77.9,53.6,29.91,South,171,2.0,3.1,43,0.00,,,-99.99,FreeWX-Wi 1.01,2013-07-22 23:13:00,
2013-07-22 16:18:00,76.8,53.8,29.91,South,169,2.0,4.9,45,0.00,,,-99.99,FreeWX-Wi 1.01,2013-07-22 23:18:00,
2013-07-22 16:24:00,76.3,53.4,29.91,South,179,2.0,3.1,45,0.00,,,-99.99,FreeWX-Wi 1.01,2013-07-22 23:24:00,
2013-07-22 16:29:00,75.7,52.9,29.91,South,173,2.0,5.8,45,0.00,,,-99.99,FreeWX-Wi 1.01,2013-07-22 23:29:00,
2013-07-22 16:39:00,76.1,53.8,29.91,SSE,162,2.0,3.6,46,0.00,,,-99.99,FreeWX-Wi 1.01,2013-07-22 23:39:00,
2013-07-22 16:44:00,76.3,53.4,29.91,SSE,158,2.0,3.6,45,0.00,,,-99.99,FreeWX-Wi 1.01,2013-07-22 23:44:00,
2013-07-22 16:49:00,75.9,53.6,29.91,SSE,152,2.0,3.6,46,0.00,,,-99.99,FreeWX-Wi 1.01,2013-07-22 23:49:00,
2013-07-22 16:54:00,75.4,53.8,29.91,SSE,151,1.0,3.6,47,0.00,,,-99.99,FreeWX-Wi 1.01,2013-07-22 23:54:00,
2013-07-22 16:59:00,75.2,53.1,29.91,SSE,167,2.0,4.0,46,0.00,,,-99.99,FreeWX-Wi 1.01,2013-07-22 23:59:00,
2013-07-22 17:04:00,75.2,53.1,29.91,South,178,1.0,2.7,46,0.00,,,-99.99,FreeWX-Wi 1.01,2013-07-23 00:04:00,
2013-07-22 17:09:00,75.0,53.4,29.91,SSE,165,1.0,2.2,47,0.00,,,-99.99,FreeWX-Wi 1.01,2013-07-23 00:09:00,
2013-07-22 17:14:00,75.2,53.1,29.91,SSE,163,1.0,4.0,46,0.00,,,-99.99,FreeWX-Wi 1.01,2013-07-23 00:14:00,
2013-07-22 17:19:00,75.2,53.6,29.91,SSE,168,1.0,2.7,47,0.00,,,-99.99,FreeWX-Wi 1.01,2013-07-23 00:19:00,
2013-07-22 17:24:00,75.2,53.6,29.91,South,174,1.0,3.1,47,0.00,,,-99.99,FreeWX-Wi 1.01,2013-07-23 00:24:00,
2013-07-22 17:29:00,74.8,53.8,29.91,South,188,1.0,0.0,48,0.00,,,-99.99,FreeWX-Wi 1.01,2013-07-23 00:29:00,
2013-07-22 17:34:00,74.7,53.6,29.91,SSW,199,1.0,4.0,48,0.00,,,-99.99,FreeWX-Wi 1.01,2013-07-23 00:34:00,
2013-07-22 17:39:00,74.8,54.3,29.91,SSW,204,1.0,3.1,49,0.00,,,-99.99,FreeWX-Wi 1.01,2013-07-23 00:39:00,
2013-07-22 17:44:00,75.2,54.1,29.91,SSW,213,1.0,3.6,48,0.00,,,-99.99,FreeWX-Wi 1.01,2013-07-23 00:44:00,
2013-07-22 17:49:00,75.6,54.5,29.91,SSW,206,1.0,2.7,48,0.00,,,-99.99,FreeWX-Wi 1.01,2013-07-23 00:49:00,
2013-07-22 17:54:00,76.1,54.3,29.91,SSW,211,1.0,2.2,47,0.00,,,-99.99,FreeWX-Wi 1.01,2013-07-23 00:54:00,
2013-07-22 17:59:00,76.6,53.6,29.91,SSW,206,1.0,4.0,45,0.00,,,-99.99,FreeWX-Wi 1.01,2013-07-23 00:59:00,
2013-07-22 18:04:00,77.0,54.0,29.91,SSW,206,1.0,2.7,45,0.00,,,-99.99,FreeWX-Wi 1.01,2013-07-23 01:04:00,
2013-07-22 18:09:00,76.6,53.6,29.91,SSW,211,1.0,3.1,45,0.00,,,-99.99,FreeWX-Wi 1.01,2013-07-23 01:09:00,
2013-07-22 18:14:00,75.9,53.1,29.91,North,-999,0.0,0.0,45,0.00,,,-99.99,FreeWX-Wi 1.01,2013-07-23 01:14:00,
2013-07-22 18:19:00,75.4,53.1,29.91,SSW,202,1.0,2.7,46,0.00,,,-99.99,FreeWX-Wi 1.01,2013-07-23 01:19:00,
2013-07-22 18:24:00,74.7,53.1,29.91,North,-999,0.0,0.0,47,0.00,,,-99.99,FreeWX-Wi 1.01,2013-07-23 01:24:00,
2013-07-22 18:29:00,74.3,53.2,29.91,North,-999,0.0,3.6,48,0.00,,,-99.99,FreeWX-Wi 1.01,2013-07-23 01:29:00,
2013-07-22 18:34:00,74.1,53.8,29.91,North,-999,0.0,2.7,49,0.00,,,-99.99,FreeWX-Wi 1.01,2013-07-23 01:34:00,
2013-07-22 18:39:00,73.8,53.4,29.91,North,-999,0.0,2.7,49,0.00,,,-99.99,FreeWX-Wi 1.01,2013-07-23 01:39:00,
2013-07-22 18:44:00,73.4,53.6,29.91,North,-999,0.0,0.0,50,0.00,,,-99.99,FreeWX-Wi 1.01,2013-07-23 01:44:00,
2013-07-22 18:49:00,73.4,53.6,29.88,North,-999,0.0,3.6,50,0.00,,,-99.99,FreeWX-Wi 1.01,2013-07-23 01:49:00,
2013-07-22 18:54:00,73.2,53.4,29.88,North,-999,0.0,3.1,50,0.00,,,-99.99,FreeWX-Wi 1.01,2013-07-23 01:54:00,
2013-07-22 18:59:00,73.0,53.2,29.88,North,-999,0.0,0.0,50,0.00,,,-99.99,FreeWX-Wi 1.01,2013-07-23 01:59:00,
2013-07-22 19:04:00,73.0,53.2,29.91,North,-999,0.0,0.0,50,0.00,,,-99.99,FreeWX-Wi 1.01,2013-07-23 02:04:00,
2013-07-22 19:09:00,72.9,53.6,29.91,North,-999,0.0,0.0,51,0.00,,,-99.99,FreeWX-Wi 1.01,2013-07-23 02:09:00,
2013-07-22 19:14:00,72.7,53.4,29.91,North,-999,0.0,0.0,51,0.00,,,-99.99,FreeWX-Wi 1.01,2013-07-23 02:14:00,
2013-07-22 19:19:00,72.7,53.4,29.88,North,-999,0.0,0.0,51,0.00,,,-99.99,FreeWX-Wi 1.01,2013-07-23 02:19:00,
2013-07-22 19:24:00,72.3,53.8,29.88,North,-999,0.0,0.0,52,0.00,,,-99.99,FreeWX-Wi 1.01,2013-07-23 02:24:00,
2013-07-22 19:29:00,72.3,53.8,29.88,North,-999,0.0,0.0,52,0.00,,,-99.99,FreeWX-Wi 1.01,2013-07-23 02:29:00,
2013-07-22 19:34:00,72.3,53.8,29.88,North,-999,0.0,0.0,52,0.00,,,-99.99,FreeWX-Wi 1.01,2013-07-23 02:34:00,
2013-07-22 19:39:00,72.1,53.6,29.88,North,-999,0.0,0.0,52,0.00,,,-99.99,FreeWX-Wi 1.01,2013-07-23 02:39:00,
2013-07-22 19:44:00,71.8,53.8,29.88,North,-999,0.0,0.0,53,0.00,,,-99.99,FreeWX-Wi 1.01,2013-07-23 02:44:00,
2013-07-22 19:49:00,71.6,53.6,29.88,North,-999,0.0,0.0,53,0.00,,,-99.99,FreeWX-Wi 1.01,2013-07-23 02:49:00,
2013-07-22 19:54:00,71.2,53.8,29.88,North,-999,0.0,0.0,54,0.00,,,-99.99,FreeWX-Wi 1.01,2013-07-23 02:54:00,
2013-07-22 19:59:00,71.1,53.6,29.88,North,-999,0.0,0.0,54,0.00,,,-99.99,FreeWX-Wi 1.01,2013-07-23 02:59:00,
2013-07-22 20:09:00,70.7,53.8,29.88,North,-999,0.0,0.0,55,0.00,,,-99.99,FreeWX-Wi 1.01,2013-07-23 03:09:00,
2013-07-22 20:14:00,70.3,53.4,29.88,North,-999,0.0,0.0,55,0.00,,,-99.99,FreeWX-Wi 1.01,2013-07-23 03:14:00,
2013-07-22 20:19:00,70.0,53.1,29.88,North,-999,0.0,0.0,55,0.00,,,-99.99,FreeWX-Wi 1.01,2013-07-23 03:19:00,
2013-07-22 20:24:00,69.8,52.9,29.88,North,-999,0.0,0.0,55,0.00,,,-99.99,FreeWX-Wi 1.01,2013-07-23 03:24:00,
2013-07-22 20:29:00,69.6,53.2,29.88,North,-999,0.0,0.0,56,0.00,,,-99.99,FreeWX-Wi 1.01,2013-07-23 03:29:00,
2013-07-22 20:34:00,69.3,52.9,29.88,North,-999,0.0,0.0,56,0.00,,,-99.99,FreeWX-Wi 1.01,2013-07-23 03:34:00,
2013-07-22 20:39:00,68.9,53.1,29.88,North,-999,0.0,0.0,57,0.00,,,-99.99,FreeWX-Wi 1.01,2013-07-23 03:39:00,
2013-07-22 20:44:00,68.5,53.2,29.88,North,-999,0.0,0.0,58,0.00,,,-99.99,FreeWX-Wi 1.01,2013-07-23 03:44:00,
2013-07-22 20:49:00,68.2,52.9,29.91,North,-999,0.0,0.0,58,0.00,,,-99.99,FreeWX-Wi 1.01,2013-07-23 03:49:00,
2013-07-22 20:54:00,67.8,52.9,29.91,North,-999,0.0,0.0,59,0.00,,,-99.99,FreeWX-Wi 1.01,2013-07-23 03:54:00,
2013-07-22 20:59:00,67.6,53.2,29.91,North,-999,0.0,0.0,60,0.00,,,-99.99,FreeWX-Wi 1.01,2013-07-23 03:59:00,
2013-07-22 21:04:00,67.3,53.4,29.91,North,-999,0.0,0.0,61,0.00,,,-99.99,FreeWX-Wi 1.01,2013-07-23 04:04:00,
2013-07-22 21:09:00,66.9,53.4,29.91,North,-999,0.0,0.0,62,0.00,,,-99.99,FreeWX-Wi 1.01,2013-07-23 04:09:00,
2013-07-22 21:14:00,66.7,53.2,29.91,North,-999,0.0,0.0,62,0.00,,,-99.99,FreeWX-Wi 1.01,2013-07-23 04:14:00,
2013-07-22 21:19:00,66.6,53.6,29.91,North,-999,0.0,0.0,63,0.00,,,-99.99,FreeWX-Wi 1.01,2013-07-23 04:19:00,
2013-07-22 21:24:00,66.2,53.6,29.91,North,-999,0.0,0.0,64,0.00,,,-99.99,FreeWX-Wi 1.01,2013-07-23 04:24:00,
2013-07-22 21:29:00,66.0,54.0,29.91,North,-999,0.0,0.0,65,0.00,,,-99.99,FreeWX-Wi 1.01,2013-07-23 04:29:00,
2013-07-22 21:34:00,65.8,53.8,29.91,North,-999,0.0,0.0,65,0.00,,,-99.99,FreeWX-Wi 1.01,2013-07-23 04:34:00,
2013-07-22 21:39:00,65.7,54.0,29.91,North,-999,0.0,0.0,66,0.00,,,-99.99,FreeWX-Wi 1.01,2013-07-23 04:39:00,
2013-07-22 21:44:00,65.5,53.8,29.91,North,-999,0.0,0.0,66,0.00,,,-99.99,FreeWX-Wi 1.01,2013-07-23 04:44:00,
2013-07-22 21:49:00,65.3,54.1,29.91,North,-999,0.0,0.0,67,0.00,,,-99.99,FreeWX-Wi 1.01,2013-07-23 04:49:00,
2013-07-22 21:54:00,65.1,54.0,29.91,North,-999,0.0,0.0,67,0.00,,,-99.99,FreeWX-Wi 1.01,2013-07-23 04:54:00,
2013-07-22 21:59:00,64.9,54.1,29.91,North,-999,0.0,0.0,68,0.00,,,-99.99,FreeWX-Wi 1.01,2013-07-23 04:59:00,
2013-07-22 22:04:00,64.8,54.0,29.91,North,-999,0.0,0.0,68,0.00,,,-99.99,FreeWX-Wi 1.01,2013-07-23 05:04:00,
2013-07-22 22:09:00,64.4,53.6,29.91,North,-999,0.0,0.0,68,0.00,,,-99.99,FreeWX-Wi 1.01,2013-07-23 05:09:00,
2013-07-22 22:14:00,64.2,53.8,29.91,North,-999,0.0,0.0,69,0.00,,,-99.99,FreeWX-Wi 1.01,2013-07-23 05:14:00,
2013-07-22 22:19:00,64.0,54.1,29.91,North,-999,0.0,0.0,70,0.00,,,-99.99,FreeWX-Wi 1.01,2013-07-23 05:19:00,
2013-07-22 22:24:00,63.9,54.0,29.91,North,-999,0.0,0.0,70,0.00,,,-99.99,FreeWX-Wi 1.01,2013-07-23 05:24:00,
2013-07-22 22:29:00,63.7,53.8,29.91,North,-999,0.0,0.0,70,0.00,,,-99.99,FreeWX-Wi 1.01,2013-07-23 05:29:00,
2013-07-22 22:34:00,63.5,53.6,29.91,North,-999,0.0,0.0,70,0.00,,,-99.99,FreeWX-Wi 1.01,2013-07-23 05:34:00,
2013-07-22 22:39:00,63.3,53.8,29.91,North,-999,0.0,0.0,71,0.00,,,-99.99,FreeWX-Wi 1.01,2013-07-23 05:39:00,
2013-07-22 22:44:00,63.1,53.6,29.91,North,-999,0.0,0.0,71,0.00,,,-99.99,FreeWX-Wi 1.01,2013-07-23 05:44:00,
2013-07-22 22:49:00,63.1,54.0,29.91,North,-999,0.0,0.0,72,0.00,,,-99.99,FreeWX-Wi 1.01,2013-07-23 05:49:00,
2013-07-22 22:54:00,63.3,54.1,29.91,North,-999,0.0,0.0,72,0.00,,,-99.99,FreeWX-Wi 1.01,2013-07-23 05:54:00,
2013-07-22 22:59:00,63.7,54.9,29.91,North,-999,0.0,0.0,73,0.00,,,-99.99,FreeWX-Wi 1.01,2013-07-23 05:59:00,
2013-07-22 23:05:00,63.7,54.9,29.91,North,-999,0.0,0.0,73,0.00,,,-99.99,FreeWX-Wi 1.01,2013-07-23 06:05:00,
2013-07-22 23:10:00,63.3,54.5,29.91,North,-999,0.0,0.0,73,0.00,,,-99.99,FreeWX-Wi 1.01,2013-07-23 06:10:00,
2013-07-22 23:15:00,63.0,54.1,29.91,North,-999,0.0,0.0,73,0.00,,,-99.99,FreeWX-Wi 1.01,2013-07-23 06:15:00,
2013-07-22 23:20:00,62.6,53.8,29.91,North,-999,0.0,0.0,73,0.00,,,-99.99,FreeWX-Wi 1.01,2013-07-23 06:20:00,
2013-07-22 23:25:00,62.2,53.8,29.91,North,-999,0.0,0.0,74,0.00,,,-99.99,FreeWX-Wi 1.01,2013-07-23 06:25:00,
2013-07-22 23:30:00,62.1,53.6,29.91,North,-999,0.0,0.0,74,0.00,,,-99.99,FreeWX-Wi 1.01,2013-07-23 06:30:00,
2013-07-22 23:35:00,61.9,53.8,29.94,North,-999,0.0,0.0,75,0.00,,,-99.99,FreeWX-Wi 1.01,2013-07-23 06:35:00,
2013-07-22 23:40:00,61.7,53.8,29.94,North,-999,0.0,0.0,75,0.00,,,-99.99,FreeWX-Wi 1.01,2013-07-23 06:40:00,
2013-07-22 23:45:00,61.7,54.1,29.94,North,-999,0.0,0.0,76,0.00,,,-99.99,FreeWX-Wi 1.01,2013-07-23 06:45:00,
2013-07-22 23:50:00,61.5,54.3,29.94,North,-999,0.0,0.0,77,0.00,,,-99.99,FreeWX-Wi 1.01,2013-07-23 06:50:00,
2013-07-22 23:55:00,61.5,54.7,29.94,North,-999,0.0,0.0,78,0.00,,,-99.99,FreeWX-Wi 1.01,2013-07-23 06:55:00,